sensor_id;sensor_type;location;lat;lon;timestamp;noise_LAeq;noise_LA_min;noise_LA_max;noise_LA01;noise_LA95
80864;Laerm;70936;51.680;5.974;2023-11-21T00:02:20;30.42;28.39;45.65;;
80864;Laerm;70936;51.680;5.974;2023-11-21T00:06:20;29.12;28.27;31.01;;
80864;Laerm;70936;51.680;5.974;2023-11-21T00:10:20;29.16;28.4;34.96;;
80864;Laerm;70936;51.680;5.974;2023-11-21T00:14:20;29.12;28.43;29.85;;
80864;Laerm;70936;51.680;5.974;2023-11-21T00:18:20;34.35;28.37;58.25;;
80864;Laerm;70936;51.680;5.974;2023-11-21T00:22:20;29.12;28.4;29.88;;
80864;Laerm;70936;51.680;5.974;2023-11-21T00:26:20;29.16;28.37;31.58;;
80864;Laerm;70936;51.680;5.974;2023-11-21T00:30:20;29.14;28.43;29.82;;
80864;Laerm;70936;51.680;5.974;2023-11-21T00:34:20;29.12;28.38;29.88;;
80864;Laerm;70936;51.680;5.974;2023-11-21T00:38:20;29.4;28.44;38.74;;
80864;Laerm;70936;51.680;5.974;2023-11-21T00:42:20;29.15;28.24;29.99;;
80864;Laerm;70936;51.680;5.974;2023-11-21T00:46:20;29.1;28.37;29.91;;
80864;Laerm;70936;51.680;5.974;2023-11-21T00:50:21;29.1;28.33;29.86;;
80864;Laerm;70936;51.680;5.974;2023-11-21T00:54:20;29.41;28.38;38.89;;
80864;Laerm;70936;51.680;5.974;2023-11-21T00:58:20;29.11;28.32;30.08;;
80864;Laerm;70936;51.680;5.974;2023-11-21T01:02:20;29.24;28.4;36.07;;
80864;Laerm;70936;51.680;5.974;2023-11-21T01:06:20;29.1;28.21;29.78;;
80864;Laerm;70936;51.680;5.974;2023-11-21T01:10:20;29.11;28.35;29.8;;
80864;Laerm;70936;51.680;5.974;2023-11-21T01:14:20;29.2;28.11;44.77;;
80864;Laerm;70936;51.680;5.974;2023-11-21T01:18:20;30.43;28.36;44.45;;
80864;Laerm;70936;51.680;5.974;2023-11-21T01:22:20;29.24;28.28;37.92;;
80864;Laerm;70936;51.680;5.974;2023-11-21T01:26:20;29.19;28.41;34.81;;
80864;Laerm;70936;51.680;5.974;2023-11-21T01:30:20;29.1;28.28;30.67;;
80864;Laerm;70936;51.680;5.974;2023-11-21T01:34:20;29.09;28.39;29.86;;
80864;Laerm;70936;51.680;5.974;2023-11-21T01:38:20;29.16;28.37;30.83;;
80864;Laerm;70936;51.680;5.974;2023-11-21T01:42:20;29.82;28.37;41.21;;
80864;Laerm;70936;51.680;5.974;2023-11-21T01:46:20;29.11;28.3;29.77;;
80864;Laerm;70936;51.680;5.974;2023-11-21T01:50:20;29.1;28.38;29.9;;
80864;Laerm;70936;51.680;5.974;2023-11-21T01:54:20;29.1;28.33;29.87;;
80864;Laerm;70936;51.680;5.974;2023-11-21T01:58:20;29.09;28.32;29.91;;
80864;Laerm;70936;51.680;5.974;2023-11-21T02:02:20;29.1;28.26;30.01;;
80864;Laerm;70936;51.680;5.974;2023-11-21T02:06:20;30.05;28.31;42.95;;
80864;Laerm;70936;51.680;5.974;2023-11-21T02:10:20;29.1;28.4;29.88;;
80864;Laerm;70936;51.680;5.974;2023-11-21T02:14:20;29.09;28.35;29.87;;
80864;Laerm;70936;51.680;5.974;2023-11-21T02:18:20;29.1;28.35;29.8;;
80864;Laerm;70936;51.680;5.974;2023-11-21T02:22:20;29.1;28.37;29.85;;
80864;Laerm;70936;51.680;5.974;2023-11-21T02:26:20;29.09;28.39;29.75;;
80864;Laerm;70936;51.680;5.974;2023-11-21T02:30:21;29.1;28.21;29.84;;
80864;Laerm;70936;51.680;5.974;2023-11-21T02:34:21;29.11;28.4;29.8;;
80864;Laerm;70936;51.680;5.974;2023-11-21T02:38:20;29.31;28.36;35.8;;
80864;Laerm;70936;51.680;5.974;2023-11-21T02:42:20;29.29;28.22;33.93;;
80864;Laerm;70936;51.680;5.974;2023-11-21T02:46:20;29.11;28.39;30.1;;
80864;Laerm;70936;51.680;5.974;2023-11-21T02:50:20;29.5;28.22;39.03;;
80864;Laerm;70936;51.680;5.974;2023-11-21T02:54:20;29.1;28.38;33.06;;
80864;Laerm;70936;51.680;5.974;2023-11-21T02:58:20;29.1;28.26;29.91;;
80864;Laerm;70936;51.680;5.974;2023-11-21T03:02:20;29.19;28.38;36.65;;
80864;Laerm;70936;51.680;5.974;2023-11-21T03:06:21;29.1;28.39;29.85;;
80864;Laerm;70936;51.680;5.974;2023-11-21T03:10:20;29.17;28.35;35.84;;
80864;Laerm;70936;51.680;5.974;2023-11-21T03:14:20;29.41;28.39;34;;
80864;Laerm;70936;51.680;5.974;2023-11-21T03:18:21;29.1;28.46;30.04;;
80864;Laerm;70936;51.680;5.974;2023-11-21T03:22:20;29.13;28.28;31.69;;
80864;Laerm;70936;51.680;5.974;2023-11-21T03:26:20;29.1;28.31;29.83;;
80864;Laerm;70936;51.680;5.974;2023-11-21T03:30:20;29.09;28.37;29.74;;
80864;Laerm;70936;51.680;5.974;2023-11-21T03:34:24;29.11;28.29;29.89;;
80864;Laerm;70936;51.680;5.974;2023-11-21T03:38:20;29.24;28.42;32.82;;
80864;Laerm;70936;51.680;5.974;2023-11-21T03:42:20;29.46;28.38;39.25;;
80864;Laerm;70936;51.680;5.974;2023-11-21T03:46:20;29.3;28.25;37.95;;
80864;Laerm;70936;51.680;5.974;2023-11-21T03:50:20;29.1;28.42;29.89;;
80864;Laerm;70936;51.680;5.974;2023-11-21T03:54:20;29.16;28.36;31.07;;
80864;Laerm;70936;51.680;5.974;2023-11-21T03:58:20;29.1;28.21;29.87;;
80864;Laerm;70936;51.680;5.974;2023-11-21T04:02:20;29.13;28.36;31.51;;
80864;Laerm;70936;51.680;5.974;2023-11-21T04:06:20;29.1;28.39;29.75;;
80864;Laerm;70936;51.680;5.974;2023-11-21T04:10:20;29.14;28.4;32.47;;
80864;Laerm;70936;51.680;5.974;2023-11-21T04:14:21;29.46;28.34;39.98;;
80864;Laerm;70936;51.680;5.974;2023-11-21T04:18:20;29.92;28.47;39.69;;
80864;Laerm;70936;51.680;5.974;2023-11-21T04:22:20;29.21;28.36;32.76;;
80864;Laerm;70936;51.680;5.974;2023-11-21T04:26:20;29.68;28.32;40.37;;
80864;Laerm;70936;51.680;5.974;2023-11-21T04:30:20;29.86;28.45;41.06;;
80864;Laerm;70936;51.680;5.974;2023-11-21T04:34:20;30.91;28.45;46.46;;
80864;Laerm;70936;51.680;5.974;2023-11-21T04:38:20;30.23;28.3;42.42;;
80864;Laerm;70936;51.680;5.974;2023-11-21T04:42:20;29.77;28.5;39.42;;
80864;Laerm;70936;51.680;5.974;2023-11-21T04:46:20;29.35;28.42;34.45;;
80864;Laerm;70936;51.680;5.974;2023-11-21T04:50:20;29.49;28.38;35.68;;
80864;Laerm;70936;51.680;5.974;2023-11-21T04:54:20;29.42;28.32;35.35;;
80864;Laerm;70936;51.680;5.974;2023-11-21T04:58:20;33.82;28.32;49.9;;
80864;Laerm;70936;51.680;5.974;2023-11-21T05:02:20;29.87;28.37;41.06;;
80864;Laerm;70936;51.680;5.974;2023-11-21T05:06:20;30.77;28.3;45.69;;
80864;Laerm;70936;51.680;5.974;2023-11-21T05:10:20;30.08;28.42;38.89;;
80864;Laerm;70936;51.680;5.974;2023-11-21T05:14:20;30.08;28.48;43.43;;
80864;Laerm;70936;51.680;5.974;2023-11-21T05:18:20;30.23;28.55;40.71;;
80864;Laerm;70936;51.680;5.974;2023-11-21T05:22:20;32.01;28.38;45.99;;
80864;Laerm;70936;51.680;5.974;2023-11-21T05:26:20;30.77;28.45;45.91;;
80864;Laerm;70936;51.680;5.974;2023-11-21T05:30:21;30.62;28.39;41.78;;
80864;Laerm;70936;51.680;5.974;2023-11-21T05:34:20;30.57;28.58;43.25;;
80864;Laerm;70936;51.680;5.974;2023-11-21T05:38:20;29.58;28.57;36.42;;
80864;Laerm;70936;51.680;5.974;2023-11-21T05:42:20;29.99;28.62;38.47;;
80864;Laerm;70936;51.680;5.974;2023-11-21T05:46:20;30.17;28.48;39.12;;
80864;Laerm;70936;51.680;5.974;2023-11-21T05:50:20;30.79;28.47;43.32;;
80864;Laerm;70936;51.680;5.974;2023-11-21T05:54:20;32.12;28.47;45.53;;
80864;Laerm;70936;51.680;5.974;2023-11-21T05:58:20;32.04;28.61;53.54;;
80864;Laerm;70936;51.680;5.974;2023-11-21T06:02:20;33.68;28.83;50.63;;
80864;Laerm;70936;51.680;5.974;2023-11-21T06:06:20;31.23;28.62;42.67;;
80864;Laerm;70936;51.680;5.974;2023-11-21T06:10:21;34.46;28.66;55.85;;
80864;Laerm;70936;51.680;5.974;2023-11-21T06:14:20;35.52;28.63;53.3;;
80864;Laerm;70936;51.680;5.974;2023-11-21T06:18:20;34.97;28.75;57.58;;
80864;Laerm;70936;51.680;5.974;2023-11-21T06:22:20;33.43;28.84;54.23;;
80864;Laerm;70936;51.680;5.974;2023-11-21T06:26:20;35.35;28.71;52.48;;
80864;Laerm;70936;51.680;5.974;2023-11-21T06:30:21;32.49;28.66;46.12;;
80864;Laerm;70936;51.680;5.974;2023-11-21T06:34:20;35.67;28.61;57.31;;
80864;Laerm;70936;51.680;5.974;2023-11-21T06:38:20;33.75;28.72;48.01;;
80864;Laerm;70936;51.680;5.974;2023-11-21T06:42:20;32.42;28.52;52.43;;
80864;Laerm;70936;51.680;5.974;2023-11-21T06:46:20;33.22;28.58;48.58;;
80864;Laerm;70936;51.680;5.974;2023-11-21T06:50:20;30.07;28.41;44.46;;
80864;Laerm;70936;51.680;5.974;2023-11-21T06:54:20;32.16;28.52;48.16;;
80864;Laerm;70936;51.680;5.974;2023-11-21T06:58:20;33.43;28.63;53.18;;
80864;Laerm;70936;51.680;5.974;2023-11-21T07:02:20;33.15;28.74;50.33;;
80864;Laerm;70936;51.680;5.974;2023-11-21T07:06:20;32.26;28.62;51.88;;
80864;Laerm;70936;51.680;5.974;2023-11-21T07:10:20;32.36;28.61;49.39;;
80864;Laerm;70936;51.680;5.974;2023-11-21T07:14:20;33.13;28.7;51.29;;
80864;Laerm;70936;51.680;5.974;2023-11-21T07:18:20;31.07;28.69;44.63;;
80864;Laerm;70936;51.680;5.974;2023-11-21T07:22:20;30.37;28.68;37.63;;
80864;Laerm;70936;51.680;5.974;2023-11-21T07:26:20;31.36;28.71;43.88;;
80864;Laerm;70936;51.680;5.974;2023-11-21T07:30:20;31.56;28.58;40.62;;
80864;Laerm;70936;51.680;5.974;2023-11-21T07:34:21;33.44;28.74;50.14;;
80864;Laerm;70936;51.680;5.974;2023-11-21T07:38:21;30.84;28.48;46.23;;
80864;Laerm;70936;51.680;5.974;2023-11-21T07:42:20;31.45;28.61;41.42;;
80864;Laerm;70936;51.680;5.974;2023-11-21T07:46:20;31.07;28.51;42.42;;
80864;Laerm;70936;51.680;5.974;2023-11-21T07:50:21;33.8;28.41;54.45;;
80864;Laerm;70936;51.680;5.974;2023-11-21T07:54:20;32.71;28.57;57.37;;
80864;Laerm;70936;51.680;5.974;2023-11-21T07:58:20;33.43;28.65;49.43;;
80864;Laerm;70936;51.680;5.974;2023-11-21T08:02:20;31.32;28.59;45.09;;
80864;Laerm;70936;51.680;5.974;2023-11-21T08:06:20;31.9;28.62;43.64;;
80864;Laerm;70936;51.680;5.974;2023-11-21T08:10:20;32.12;28.65;42.15;;
80864;Laerm;70936;51.680;5.974;2023-11-21T08:14:20;34.29;28.68;54.07;;
80864;Laerm;70936;51.680;5.974;2023-11-21T08:18:20;31.88;28.59;49.28;;
80864;Laerm;70936;51.680;5.974;2023-11-21T08:22:20;31.8;28.69;44.97;;
80864;Laerm;70936;51.680;5.974;2023-11-21T08:26:21;31.98;28.71;49.91;;
80864;Laerm;70936;51.680;5.974;2023-11-21T08:30:20;31.81;28.52;47.18;;
80864;Laerm;70936;51.680;5.974;2023-11-21T08:34:20;31.01;28.44;45.31;;
80864;Laerm;70936;51.680;5.974;2023-11-21T08:38:20;31.51;28.52;43.24;;
80864;Laerm;70936;51.680;5.974;2023-11-21T08:42:20;34.53;28.66;53.46;;
80864;Laerm;70936;51.680;5.974;2023-11-21T08:46:20;33.23;28.59;51.58;;
80864;Laerm;70936;51.680;5.974;2023-11-21T08:50:20;33.4;28.6;46.1;;
80864;Laerm;70936;51.680;5.974;2023-11-21T08:54:20;33.29;28.72;53.37;;
80864;Laerm;70936;51.680;5.974;2023-11-21T08:58:20;33.71;28.64;51.08;;
80864;Laerm;70936;51.680;5.974;2023-11-21T09:02:21;32.93;28.61;45.39;;
80864;Laerm;70936;51.680;5.974;2023-11-21T09:06:20;33.87;28.68;53.06;;
80864;Laerm;70936;51.680;5.974;2023-11-21T09:10:21;32.07;28.61;47.87;;
80864;Laerm;70936;51.680;5.974;2023-11-21T09:14:20;33.24;28.56;57.26;;
80864;Laerm;70936;51.680;5.974;2023-11-21T09:18:20;30.86;28.6;45.43;;
80864;Laerm;70936;51.680;5.974;2023-11-21T09:22:20;30.74;28.51;49.46;;
80864;Laerm;70936;51.680;5.974;2023-11-21T09:26:20;30.65;28.61;42.56;;
80864;Laerm;70936;51.680;5.974;2023-11-21T09:30:20;34.85;28.6;52.14;;
80864;Laerm;70936;51.680;5.974;2023-11-21T09:34:20;32.6;28.55;51.09;;
80864;Laerm;70936;51.680;5.974;2023-11-21T09:38:20;32.29;28.52;45.63;;
80864;Laerm;70936;51.680;5.974;2023-11-21T09:42:23;30.65;28.5;43.71;;
80864;Laerm;70936;51.680;5.974;2023-11-21T09:46:21;31.53;28.62;43.66;;
80864;Laerm;70936;51.680;5.974;2023-11-21T09:50:20;30.28;28.6;39.9;;
80864;Laerm;70936;51.680;5.974;2023-11-21T09:54:20;30.09;28.5;39.7;;
80864;Laerm;70936;51.680;5.974;2023-11-21T09:58:21;30.33;28.54;42.78;;
80864;Laerm;70936;51.680;5.974;2023-11-21T10:02:21;31.88;28.38;49.88;;
80864;Laerm;70936;51.680;5.974;2023-11-21T10:06:20;30.52;28.29;43.02;;
80864;Laerm;70936;51.680;5.974;2023-11-21T10:10:21;34.39;28.38;50.86;;
80864;Laerm;70936;51.680;5.974;2023-11-21T10:14:20;30.77;28.45;43.37;;
80864;Laerm;70936;51.680;5.974;2023-11-21T10:18:20;30.78;28.45;43.48;;
80864;Laerm;70936;51.680;5.974;2023-11-21T10:22:20;35.58;28.57;53.77;;
80864;Laerm;70936;51.680;5.974;2023-11-21T10:26:20;30.6;28.49;44.07;;
80864;Laerm;70936;51.680;5.974;2023-11-21T10:30:20;31.47;28.7;50;;
80864;Laerm;70936;51.680;5.974;2023-11-21T10:34:20;32.02;28.58;50.39;;
80864;Laerm;70936;51.680;5.974;2023-11-21T10:38:21;31.29;28.57;47.97;;
80864;Laerm;70936;51.680;5.974;2023-11-21T10:42:20;31.38;28.54;49.29;;
80864;Laerm;70936;51.680;5.974;2023-11-21T10:46:20;30.85;28.59;42.96;;
80864;Laerm;70936;51.680;5.974;2023-11-21T10:50:20;31.77;28.71;48.96;;
80864;Laerm;70936;51.680;5.974;2023-11-21T10:54:21;33.02;28.6;49.16;;
80864;Laerm;70936;51.680;5.974;2023-11-21T10:58:20;31.59;28.44;42.57;;
80864;Laerm;70936;51.680;5.974;2023-11-21T11:02:23;32.14;28.58;45.38;;
80864;Laerm;70936;51.680;5.974;2023-11-21T11:06:21;32.08;28.5;43.53;;
80864;Laerm;70936;51.680;5.974;2023-11-21T11:10:21;31.34;28.52;47.14;;
80864;Laerm;70936;51.680;5.974;2023-11-21T11:14:20;30.49;28.35;43.27;;
80864;Laerm;70936;51.680;5.974;2023-11-21T11:18:20;29.77;28.54;36.35;;
80864;Laerm;70936;51.680;5.974;2023-11-21T11:22:29;31.29;28.55;44.97;;
80864;Laerm;70936;51.680;5.974;2023-11-21T11:26:26;32.4;28.51;53.32;;
80864;Laerm;70936;51.680;5.974;2023-11-21T11:30:27;32.15;28.59;49.66;;
80864;Laerm;70936;51.680;5.974;2023-11-21T11:34:23;32.36;28.52;46.37;;
80864;Laerm;70936;51.680;5.974;2023-11-21T11:38:21;31.3;28.61;44.04;;
80864;Laerm;70936;51.680;5.974;2023-11-21T11:42:21;30.99;28.39;50.8;;
80864;Laerm;70936;51.680;5.974;2023-11-21T11:46:20;31.78;28.47;47.32;;
80864;Laerm;70936;51.680;5.974;2023-11-21T11:50:20;31.53;28.64;48.13;;
80864;Laerm;70936;51.680;5.974;2023-11-21T11:54:34;30.14;28.45;38.82;;
80864;Laerm;70936;51.680;5.974;2023-11-21T11:58:20;31.54;28.5;47.36;;
80864;Laerm;70936;51.680;5.974;2023-11-21T12:02:22;30.14;28.46;40.18;;
80864;Laerm;70936;51.680;5.974;2023-11-21T12:06:32;31.19;28.61;43.95;;
80864;Laerm;70936;51.680;5.974;2023-11-21T12:10:21;33.76;28.55;55.93;;
80864;Laerm;70936;51.680;5.974;2023-11-21T12:14:20;30.15;28.5;40.88;;
80864;Laerm;70936;51.680;5.974;2023-11-21T12:18:21;30.98;28.57;41.47;;
80864;Laerm;70936;51.680;5.974;2023-11-21T12:22:20;35.78;28.49;60.75;;
80864;Laerm;70936;51.680;5.974;2023-11-21T12:26:23;33.54;28.53;52.21;;
80864;Laerm;70936;51.680;5.974;2023-11-21T12:30:21;30.69;28.62;39.84;;
80864;Laerm;70936;51.680;5.974;2023-11-21T12:34:21;35.07;28.72;48.07;;
80864;Laerm;70936;51.680;5.974;2023-11-21T12:38:20;32.74;28.41;44.22;;
80864;Laerm;70936;51.680;5.974;2023-11-21T12:42:20;30.86;28.56;40.27;;
80864;Laerm;70936;51.680;5.974;2023-11-21T12:46:20;32.91;28.7;50.65;;
80864;Laerm;70936;51.680;5.974;2023-11-21T12:50:21;33.4;28.39;45.67;;
80864;Laerm;70936;51.680;5.974;2023-11-21T12:54:20;31.56;28.5;46.28;;
80864;Laerm;70936;51.680;5.974;2023-11-21T12:58:20;30.19;28.47;41.88;;
80864;Laerm;70936;51.680;5.974;2023-11-21T13:02:20;30.99;28.53;49.15;;
80864;Laerm;70936;51.680;5.974;2023-11-21T13:06:20;32.69;28.58;51.87;;
80864;Laerm;70936;51.680;5.974;2023-11-21T13:10:21;33.62;28.64;47.09;;
80864;Laerm;70936;51.680;5.974;2023-11-21T13:14:21;33.15;28.64;47.87;;
80864;Laerm;70936;51.680;5.974;2023-11-21T13:18:20;31.97;28.51;50.01;;
80864;Laerm;70936;51.680;5.974;2023-11-21T13:22:20;34.75;28.56;56.77;;
80864;Laerm;70936;51.680;5.974;2023-11-21T13:26:20;32.48;28.5;46.11;;
80864;Laerm;70936;51.680;5.974;2023-11-21T13:30:21;33.77;28.56;52.07;;
80864;Laerm;70936;51.680;5.974;2023-11-21T13:34:20;33.48;28.72;45.37;;
80864;Laerm;70936;51.680;5.974;2023-11-21T13:38:21;34.06;28.75;53.76;;
80864;Laerm;70936;51.680;5.974;2023-11-21T13:42:20;35.26;28.61;56.51;;
80864;Laerm;70936;51.680;5.974;2023-11-21T13:46:20;32.05;28.68;50.05;;
80864;Laerm;70936;51.680;5.974;2023-11-21T13:50:21;33.5;28.47;50.62;;
80864;Laerm;70936;51.680;5.974;2023-11-21T13:54:20;31.57;28.56;47.37;;
80864;Laerm;70936;51.680;5.974;2023-11-21T13:58:21;31.05;28.51;53.08;;
80864;Laerm;70936;51.680;5.974;2023-11-21T14:02:21;32.54;28.37;43.66;;
80864;Laerm;70936;51.680;5.974;2023-11-21T14:06:20;31.59;28.49;41.14;;
80864;Laerm;70936;51.680;5.974;2023-11-21T14:10:20;30.44;28.57;37.68;;
80864;Laerm;70936;51.680;5.974;2023-11-21T14:14:21;30.99;28.44;44.07;;
80864;Laerm;70936;51.680;5.974;2023-11-21T14:18:20;32.52;28.5;51.6;;
80864;Laerm;70936;51.680;5.974;2023-11-21T14:22:20;31.33;28.69;40.47;;
80864;Laerm;70936;51.680;5.974;2023-11-21T14:26:20;30.88;28.48;49.03;;
80864;Laerm;70936;51.680;5.974;2023-11-21T14:30:20;31.03;28.46;42.13;;
80864;Laerm;70936;51.680;5.974;2023-11-21T14:34:21;31.73;28.59;46.65;;
80864;Laerm;70936;51.680;5.974;2023-11-21T14:38:20;30.96;28.41;42.42;;
80864;Laerm;70936;51.680;5.974;2023-11-21T14:42:21;32.8;28.7;50.24;;
80864;Laerm;70936;51.680;5.974;2023-11-21T14:46:20;31.89;28.58;45.42;;
80864;Laerm;70936;51.680;5.974;2023-11-21T14:50:21;31.75;28.61;42.72;;
80864;Laerm;70936;51.680;5.974;2023-11-21T14:54:21;30.32;28.57;41.97;;
80864;Laerm;70936;51.680;5.974;2023-11-21T14:58:20;31.41;28.68;43.33;;
80864;Laerm;70936;51.680;5.974;2023-11-21T15:02:20;30.86;28.46;44.95;;
80864;Laerm;70936;51.680;5.974;2023-11-21T15:06:20;32.31;28.66;43.33;;
80864;Laerm;70936;51.680;5.974;2023-11-21T15:10:20;30.95;28.47;41.57;;
80864;Laerm;70936;51.680;5.974;2023-11-21T15:14:21;31.21;28.53;42.61;;
80864;Laerm;70936;51.680;5.974;2023-11-21T15:18:20;32.95;28.75;51.18;;
80864;Laerm;70936;51.680;5.974;2023-11-21T15:22:21;31.32;28.47;41.89;;
80864;Laerm;70936;51.680;5.974;2023-11-21T15:26:20;31.92;28.67;45.45;;
80864;Laerm;70936;51.680;5.974;2023-11-21T15:30:20;34.7;28.71;57.58;;
80864;Laerm;70936;51.680;5.974;2023-11-21T15:34:20;30.87;28.72;45.3;;
80864;Laerm;70936;51.680;5.974;2023-11-21T15:38:20;34.71;28.96;50.79;;
80864;Laerm;70936;51.680;5.974;2023-11-21T15:42:20;30.87;28.57;41.07;;
80864;Laerm;70936;51.680;5.974;2023-11-21T15:46:20;32.27;28.57;49.39;;
80864;Laerm;70936;51.680;5.974;2023-11-21T15:50:21;31.09;28.64;41.7;;
80864;Laerm;70936;51.680;5.974;2023-11-21T15:54:21;31.6;28.56;46.62;;
80864;Laerm;70936;51.680;5.974;2023-11-21T15:58:20;35.46;28.48;62.09;;
80864;Laerm;70936;51.680;5.974;2023-11-21T16:02:20;31.42;28.51;45.84;;
80864;Laerm;70936;51.680;5.974;2023-11-21T16:06:20;30.78;28.64;42;;
80864;Laerm;70936;51.680;5.974;2023-11-21T16:10:20;33.26;28.71;48.02;;
80864;Laerm;70936;51.680;5.974;2023-11-21T16:14:20;32.08;29.04;49.49;;
80864;Laerm;70936;51.680;5.974;2023-11-21T16:18:21;34.2;29.03;60.82;;
80864;Laerm;70936;51.680;5.974;2023-11-21T16:22:20;32.79;29.08;49.02;;
80864;Laerm;70936;51.680;5.974;2023-11-21T16:26:21;33.21;28.99;50.43;;
80864;Laerm;70936;51.680;5.974;2023-11-21T16:30:21;34.87;29.02;54.47;;
80864;Laerm;70936;51.680;5.974;2023-11-21T16:34:21;31.55;28.83;49.36;;
80864;Laerm;70936;51.680;5.974;2023-11-21T16:38:20;33.15;28.6;49.93;;
80864;Laerm;70936;51.680;5.974;2023-11-21T16:42:20;32.75;28.95;47.26;;
80864;Laerm;70936;51.680;5.974;2023-11-21T16:46:20;32.01;28.74;48.65;;
80864;Laerm;70936;51.680;5.974;2023-11-21T16:50:20;32.41;28.69;52.9;;
80864;Laerm;70936;51.680;5.974;2023-11-21T16:54:20;34.45;28.81;56.67;;
80864;Laerm;70936;51.680;5.974;2023-11-21T16:58:20;36.9;28.84;55.92;;
80864;Laerm;70936;51.680;5.974;2023-11-21T17:02:20;36.84;28.69;56.21;;
80864;Laerm;70936;51.680;5.974;2023-11-21T17:06:20;36.33;28.59;55.94;;
80864;Laerm;70936;51.680;5.974;2023-11-21T17:10:21;36.9;28.64;58.92;;
80864;Laerm;70936;51.680;5.974;2023-11-21T17:14:20;37.83;28.67;57.85;;
80864;Laerm;70936;51.680;5.974;2023-11-21T17:18:20;36.58;28.7;54.07;;
80864;Laerm;70936;51.680;5.974;2023-11-21T17:22:20;36.87;28.7;55.49;;
80864;Laerm;70936;51.680;5.974;2023-11-21T17:26:20;37.18;28.72;56.7;;
80864;Laerm;70936;51.680;5.974;2023-11-21T17:30:21;37.13;28.49;54.67;;
80864;Laerm;70936;51.680;5.974;2023-11-21T17:34:20;36.35;28.66;55.89;;
80864;Laerm;70936;51.680;5.974;2023-11-21T17:38:20;35.81;28.61;54.21;;
80864;Laerm;70936;51.680;5.974;2023-11-21T17:42:20;34.72;28.58;57.49;;
80864;Laerm;70936;51.680;5.974;2023-11-21T17:46:21;34.11;28.54;58.46;;
80864;Laerm;70936;51.680;5.974;2023-11-21T17:50:21;29.79;28.47;42.41;;
80864;Laerm;70936;51.680;5.974;2023-11-21T17:54:20;31.22;28.73;43.26;;
80864;Laerm;70936;51.680;5.974;2023-11-21T17:58:20;30.03;28.45;39.95;;
80864;Laerm;70936;51.680;5.974;2023-11-21T18:02:20;31.9;28.47;48.49;;
80864;Laerm;70936;51.680;5.974;2023-11-21T18:06:20;30.46;28.41;39.59;;
80864;Laerm;70936;51.680;5.974;2023-11-21T18:10:21;29.8;28.58;39.53;;
80864;Laerm;70936;51.680;5.974;2023-11-21T18:14:20;29.75;28.35;35.79;;
80864;Laerm;70936;51.680;5.974;2023-11-21T18:18:20;30.43;28.38;41.28;;
80864;Laerm;70936;51.680;5.974;2023-11-21T18:22:21;29.7;28.35;35.9;;
80864;Laerm;70936;51.680;5.974;2023-11-21T18:26:21;29.53;28.48;34.48;;
80864;Laerm;70936;51.680;5.974;2023-11-21T18:30:20;31.13;28.57;43.13;;
80864;Laerm;70936;51.680;5.974;2023-11-21T18:34:20;30.85;28.53;40.81;;
80864;Laerm;70936;51.680;5.974;2023-11-21T18:38:20;30.37;28.51;41.61;;
80864;Laerm;70936;51.680;5.974;2023-11-21T18:42:20;32.73;28.65;58.82;;
80864;Laerm;70936;51.680;5.974;2023-11-21T18:46:20;33.2;28.54;54.27;;
80864;Laerm;70936;51.680;5.974;2023-11-21T18:50:21;31.28;28.53;45.83;;
80864;Laerm;70936;51.680;5.974;2023-11-21T18:54:20;30.32;28.53;41.96;;
80864;Laerm;70936;51.680;5.974;2023-11-21T18:58:20;31.69;28.59;52.67;;
80864;Laerm;70936;51.680;5.974;2023-11-21T19:02:20;30.87;28.51;48.08;;
80864;Laerm;70936;51.680;5.974;2023-11-21T19:06:21;29.84;28.48;36.81;;
80864;Laerm;70936;51.680;5.974;2023-11-21T19:10:20;29.73;28.49;38.27;;
80864;Laerm;70936;51.680;5.974;2023-11-21T19:14:20;30.63;28.41;42.56;;
80864;Laerm;70936;51.680;5.974;2023-11-21T19:18:20;29.58;28.51;36.48;;
80864;Laerm;70936;51.680;5.974;2023-11-21T19:22:20;29.81;28.45;41.11;;
80864;Laerm;70936;51.680;5.974;2023-11-21T19:26:20;29.92;28.58;38.42;;
80864;Laerm;70936;51.680;5.974;2023-11-21T19:30:20;29.57;28.61;39.64;;
80864;Laerm;70936;51.680;5.974;2023-11-21T19:34:20;30.07;28.35;38.37;;
80864;Laerm;70936;51.680;5.974;2023-11-21T19:38:20;29.74;28.4;38.73;;
80864;Laerm;70936;51.680;5.974;2023-11-21T19:42:20;30.32;28.42;40.7;;
80864;Laerm;70936;51.680;5.974;2023-11-21T19:46:20;29.52;28.48;35.43;;
80864;Laerm;70936;51.680;5.974;2023-11-21T19:50:20;29.88;28.61;37.42;;
80864;Laerm;70936;51.680;5.974;2023-11-21T19:54:21;29.85;28.47;39.05;;
80864;Laerm;70936;51.680;5.974;2023-11-21T19:58:20;29.47;28.37;37.25;;
80864;Laerm;70936;51.680;5.974;2023-11-21T20:02:20;29.69;28.48;36.95;;
80864;Laerm;70936;51.680;5.974;2023-11-21T20:06:20;29.75;28.44;40.05;;
80864;Laerm;70936;51.680;5.974;2023-11-21T20:10:20;29.93;28.54;40.35;;
80864;Laerm;70936;51.680;5.974;2023-11-21T20:14:20;29.5;28.43;34.59;;
80864;Laerm;70936;51.680;5.974;2023-11-21T20:18:20;29.37;28.37;36.23;;
80864;Laerm;70936;51.680;5.974;2023-11-21T20:22:20;30.25;28.4;43.62;;
80864;Laerm;70936;51.680;5.974;2023-11-21T20:26:21;30.48;28.57;42.42;;
80864;Laerm;70936;51.680;5.974;2023-11-21T20:30:21;30.79;28.34;49.46;;
80864;Laerm;70936;51.680;5.974;2023-11-21T20:34:20;29.9;28.45;38.66;;
80864;Laerm;70936;51.680;5.974;2023-11-21T20:38:20;29.64;28.57;35.91;;
80864;Laerm;70936;51.680;5.974;2023-11-21T20:42:20;29.79;28.56;35.97;;
80864;Laerm;70936;51.680;5.974;2023-11-21T20:46:20;29.72;28.43;42.22;;
80864;Laerm;70936;51.680;5.974;2023-11-21T20:50:20;29.96;28.56;41.46;;
80864;Laerm;70936;51.680;5.974;2023-11-21T20:54:20;29.95;28.46;40.08;;
80864;Laerm;70936;51.680;5.974;2023-11-21T20:58:20;30.44;28.41;47.26;;
80864;Laerm;70936;51.680;5.974;2023-11-21T21:02:20;29.99;28.45;40.66;;
80864;Laerm;70936;51.680;5.974;2023-11-21T21:06:20;30.79;28.44;42.68;;
80864;Laerm;70936;51.680;5.974;2023-11-21T21:10:21;30.19;28.64;39.4;;
80864;Laerm;70936;51.680;5.974;2023-11-21T21:14:20;34.43;28.5;55.44;;
80864;Laerm;70936;51.680;5.974;2023-11-21T21:18:20;33.13;28.5;51.87;;
80864;Laerm;70936;51.680;5.974;2023-11-21T21:22:20;29.84;28.59;42.5;;
80864;Laerm;70936;51.680;5.974;2023-11-21T21:26:20;30.17;28.48;42.15;;
80864;Laerm;70936;51.680;5.974;2023-11-21T21:30:21;29.59;28.45;43.01;;
80864;Laerm;70936;51.680;5.974;2023-11-21T21:34:20;29.55;28.5;37.36;;
80864;Laerm;70936;51.680;5.974;2023-11-21T21:38:20;29.9;28.51;36.21;;
80864;Laerm;70936;51.680;5.974;2023-11-21T21:42:20;29.27;28.37;33.37;;
80864;Laerm;70936;51.680;5.974;2023-11-21T21:46:20;29.33;28.37;35.64;;
80864;Laerm;70936;51.680;5.974;2023-11-21T21:50:20;29.16;28.47;30.01;;
80864;Laerm;70936;51.680;5.974;2023-11-21T21:54:20;29.29;28.48;44.4;;
80864;Laerm;70936;51.680;5.974;2023-11-21T21:58:22;29.47;28.25;36.34;;
80864;Laerm;70936;51.680;5.974;2023-11-21T22:02:20;29.14;28.39;29.96;;
80864;Laerm;70936;51.680;5.974;2023-11-21T22:06:21;29.3;28.42;35.27;;
80864;Laerm;70936;51.680;5.974;2023-11-21T22:10:20;29.19;28.3;31.81;;
80864;Laerm;70936;51.680;5.974;2023-11-21T22:14:20;29.37;28.35;36.44;;
80864;Laerm;70936;51.680;5.974;2023-11-21T22:18:20;29.29;28.44;33.27;;
80864;Laerm;70936;51.680;5.974;2023-11-21T22:22:20;29.49;28.46;36.9;;
80864;Laerm;70936;51.680;5.974;2023-11-21T22:26:20;29.14;28.3;29.9;;
80864;Laerm;70936;51.680;5.974;2023-11-21T22:30:20;29.79;28.39;41.85;;